createdAt,value
2023-03-17T00:00:41.399Z,8.63
2023-03-17T00:04:43.686Z,8.63
2023-03-17T00:08:46.365Z,8.63
2023-03-17T00:12:49.489Z,8.65
2023-03-17T00:16:53.113Z,8.67
2023-03-17T00:20:54.687Z,8.67
2023-03-17T00:24:56.225Z,8.64
2023-03-17T00:28:57.833Z,8.64
2023-03-17T00:32:59.476Z,8.64
2023-03-17T00:37:01.924Z,8.60
2023-03-17T00:41:04.427Z,8.60
2023-03-17T00:45:06.543Z,8.58
2023-03-17T00:53:21.395Z,8.54
2023-03-17T00:57:23.566Z,8.54
2023-03-17T01:01:26.779Z,8.57
2023-03-17T01:05:28.586Z,8.55
2023-03-17T01:09:30.844Z,8.57
2023-03-17T01:13:32.862Z,8.55
2023-03-17T01:17:34.472Z,8.55
2023-03-17T01:21:36.534Z,8.55
2023-03-17T01:25:40.387Z,8.55
2023-03-17T01:29:42.028Z,8.57
2023-03-17T01:33:43.674Z,8.55
2023-03-17T01:37:47.061Z,8.54
2023-03-17T01:41:48.595Z,8.52
2023-03-17T01:46:20.957Z,8.52
2023-03-17T01:50:23.625Z,8.47
2023-03-17T01:54:36.918Z,8.46
2023-03-17T01:58:39.615Z,8.46
2023-03-17T02:02:43.788Z,8.47
2023-03-17T02:06:57.479Z,8.47
2023-03-17T02:11:02.110Z,8.47
2023-03-17T02:15:05.296Z,8.46
2023-03-17T02:19:06.918Z,8.47
2023-03-17T02:23:08.503Z,8.46
2023-03-17T02:27:35.440Z,8.43
2023-03-17T02:31:37.018Z,8.39
2023-03-17T02:35:39.682Z,8.36
2023-03-17T02:39:43.278Z,8.32
2023-03-17T02:43:44.846Z,8.28
2023-03-17T02:47:47.892Z,8.24
2023-03-17T02:51:49.422Z,8.21
2023-03-17T02:55:51.103Z,8.14
2023-03-17T02:59:52.889Z,8.09
2023-03-17T03:03:54.991Z,8.04
2023-03-17T03:07:56.584Z,8.02
2023-03-17T03:11:58.098Z,7.94
2023-03-17T03:16:00.389Z,7.91
2023-03-17T03:20:03.312Z,7.91
2023-03-17T03:24:07.337Z,7.88
2023-03-17T03:28:09.968Z,7.86
2023-03-17T03:32:11.515Z,7.81
2023-03-17T03:36:13.430Z,7.77
2023-03-17T03:40:15.072Z,7.73
2023-03-17T03:44:16.656Z,7.69
2023-03-17T03:48:18.853Z,7.60
2023-03-17T03:52:20.965Z,7.60
2023-03-17T03:56:22.534Z,7.55
2023-03-17T04:00:24.369Z,7.55
2023-03-17T04:04:26.394Z,7.52
2023-03-17T04:08:27.956Z,7.50
2023-03-17T04:12:29.554Z,7.47
2023-03-17T04:16:31.135Z,7.42
2023-03-17T04:20:33.292Z,7.41
2023-03-17T04:24:35.255Z,7.37
2023-03-17T04:28:36.800Z,7.36
2023-03-17T04:32:38.329Z,7.34
2023-03-17T04:36:40.432Z,7.33
2023-03-17T04:40:42.163Z,7.32
2023-03-17T04:44:44.459Z,7.32
2023-03-17T04:48:46.363Z,7.32
2023-03-17T04:52:48.017Z,7.24
2023-03-17T04:56:49.581Z,7.23
2023-03-17T05:00:51.485Z,7.19
2023-03-17T05:04:53.524Z,7.16
2023-03-17T05:08:55.245Z,7.14
2023-03-17T05:12:56.729Z,7.11
2023-03-17T05:16:58.256Z,7.08
2023-03-17T05:21:00.221Z,6.99
2023-03-17T05:25:02.576Z,6.82
2023-03-17T05:29:04.321Z,6.73
2023-03-17T05:33:06.260Z,6.69
2023-03-17T05:37:07.978Z,6.64
2023-03-17T05:41:10.532Z,6.60
2023-03-17T05:45:13.093Z,6.58
2023-03-17T05:49:15.253Z,6.57
2023-03-17T05:53:17.455Z,6.58
2023-03-17T05:57:19.356Z,6.58
2023-03-17T06:01:21.045Z,6.58
2023-03-17T06:05:22.717Z,6.57
2023-03-17T06:09:24.325Z,6.60
2023-03-17T06:13:25.872Z,6.63
2023-03-17T06:17:27.360Z,6.68
2023-03-17T06:21:28.984Z,6.68
2023-03-17T06:25:30.842Z,6.71
2023-03-17T06:29:32.514Z,6.73
2023-03-17T06:33:35.300Z,6.76
2023-03-17T06:37:37.207Z,6.79
2023-03-17T06:41:39.081Z,6.82
2023-03-17T06:45:41.497Z,6.90
2023-03-17T06:49:43.070Z,6.96
2023-03-17T06:53:44.718Z,7.01
2023-03-17T06:57:48.323Z,7.09
2023-03-17T07:01:51.844Z,7.14
2023-03-17T07:05:54.666Z,7.21
2023-03-17T07:09:56.198Z,7.27
2023-03-17T07:13:57.782Z,7.34
2023-03-17T07:17:59.306Z,7.45
2023-03-17T07:22:01.007Z,7.55
2023-03-17T07:26:03.487Z,7.66
2023-03-17T07:30:06.085Z,7.71
2023-03-17T07:34:07.683Z,7.77
2023-03-17T07:38:09.960Z,7.88
2023-03-17T07:42:15.302Z,8.00
2023-03-17T07:46:17.494Z,8.12
2023-03-17T07:50:19.820Z,8.24
2023-03-17T07:54:21.543Z,8.36
2023-03-17T07:58:23.156Z,8.43
2023-03-17T08:02:25.059Z,8.50
2023-03-17T08:06:26.959Z,8.58
2023-03-17T08:10:28.629Z,8.65
2023-03-17T08:14:30.600Z,8.76
2023-03-17T08:18:32.244Z,8.86
2023-03-17T08:22:33.797Z,8.93
2023-03-17T08:26:36.146Z,9.01
2023-03-17T08:30:38.625Z,9.04
2023-03-17T08:34:40.618Z,9.03
2023-03-17T08:38:44.000Z,9.06
2023-03-17T08:42:47.720Z,9.16
2023-03-17T08:46:50.078Z,9.31
2023-03-17T08:50:52.010Z,9.53
2023-03-17T08:54:54.453Z,9.65
2023-03-17T08:58:56.437Z,9.68
2023-03-17T09:02:58.326Z,9.81
2023-03-17T09:07:03.804Z,9.92
2023-03-17T09:11:07.542Z,10.07
2023-03-17T09:15:10.228Z,10.17
2023-03-17T09:19:11.758Z,10.25
2023-03-17T09:23:13.744Z,10.32
2023-03-17T09:27:15.569Z,10.39
2023-03-17T09:31:17.175Z,10.47
2023-03-17T09:35:19.324Z,10.69
2023-03-17T09:39:23.076Z,10.88
2023-03-17T09:43:47.111Z,11.05
2023-03-17T09:48:10.893Z,11.17
2023-03-17T09:52:18.585Z,11.35
2023-03-17T09:56:20.779Z,11.54
2023-03-17T10:00:27.428Z,11.69
2023-03-17T10:04:28.982Z,11.77
2023-03-17T10:08:33.798Z,11.97
2023-03-17T10:12:56.581Z,12.07
2023-03-17T10:17:15.373Z,12.19
2023-03-17T10:21:29.969Z,12.36
2023-03-17T10:25:34.351Z,12.51
2023-03-17T10:29:36.137Z,12.69
2023-03-17T10:33:37.803Z,12.85
2023-03-17T10:37:39.780Z,12.94
2023-03-17T10:41:53.663Z,13.13
2023-03-17T10:46:00.754Z,13.29
2023-03-17T10:50:21.396Z,13.43
2023-03-17T10:54:25.240Z,13.63
2023-03-17T10:58:40.175Z,13.72
2023-03-17T11:02:49.309Z,13.88
2023-03-17T11:06:51.408Z,14.04
2023-03-17T11:10:56.709Z,14.08
2023-03-17T11:15:00.793Z,14.11
2023-03-17T11:19:05.035Z,14.24
2023-03-17T11:23:19.256Z,14.29
2023-03-17T11:27:31.548Z,14.45
2023-03-17T11:31:46.733Z,14.56
2023-03-17T11:35:57.749Z,14.72
2023-03-17T11:40:13.023Z,14.83
2023-03-17T11:44:48.955Z,14.90
2023-03-17T11:48:59.296Z,14.91
2023-03-17T11:53:39.467Z,15.00
2023-03-17T11:57:48.247Z,14.93
2023-03-17T12:02:16.497Z,14.93
2023-03-17T12:06:26.828Z,14.95
2023-03-17T12:10:36.292Z,15.01
2023-03-17T12:14:53.248Z,15.05
2023-03-17T12:19:17.578Z,15.09
2023-03-17T12:23:29.410Z,15.13
2023-03-17T12:28:19.231Z,15.20
2023-03-17T12:32:39.378Z,15.23
2023-03-17T12:36:42.629Z,15.30
2023-03-17T12:41:09.755Z,15.37
2023-03-17T12:45:31.229Z,15.48
2023-03-17T12:50:09.335Z,15.53
2023-03-17T12:54:31.991Z,15.60
2023-03-17T12:58:37.069Z,15.62
2023-03-17T13:02:39.741Z,15.62
2023-03-17T13:06:46.028Z,15.64
2023-03-17T13:10:51.146Z,15.62
2023-03-17T13:14:53.241Z,15.64
2023-03-17T13:19:14.667Z,15.59
2023-03-17T13:23:19.264Z,15.60
2023-03-17T13:27:29.916Z,15.62
2023-03-17T13:31:36.930Z,15.68
2023-03-17T13:36:16.334Z,15.74
2023-03-17T13:40:52.571Z,15.80
2023-03-17T13:45:28.489Z,15.84
2023-03-17T13:49:32.195Z,15.78
2023-03-17T13:53:38.386Z,15.74
2023-03-17T13:57:40.181Z,15.66
2023-03-17T14:02:06.741Z,15.60
2023-03-17T14:06:12.011Z,15.56
2023-03-17T14:10:20.444Z,15.53
2023-03-17T14:14:45.126Z,15.51
2023-03-17T14:18:50.405Z,15.52
2023-03-17T14:23:03.877Z,15.48
2023-03-17T14:27:09.616Z,15.41
2023-03-17T14:31:22.844Z,15.38
2023-03-17T14:35:24.418Z,15.37
2023-03-17T14:39:26.153Z,15.31
2023-03-17T14:43:27.662Z,15.28
2023-03-17T14:47:35.039Z,15.23
2023-03-17T14:51:39.238Z,15.19
2023-03-17T14:55:43.490Z,15.16
2023-03-17T14:59:59.803Z,15.13
2023-03-17T15:04:13.505Z,15.12
2023-03-17T15:08:36.049Z,15.09
2023-03-17T15:12:38.404Z,15.04
2023-03-17T15:16:50.862Z,15.00
2023-03-17T15:20:55.247Z,14.97
2023-03-17T15:25:34.716Z,14.97
2023-03-17T15:29:36.275Z,14.98
2023-03-17T15:33:39.603Z,15.01
2023-03-17T15:37:41.671Z,15.03
2023-03-17T15:41:43.325Z,15.04
2023-03-17T15:45:45.371Z,15.00
2023-03-17T15:49:48.494Z,15.00
2023-03-17T15:53:50.152Z,15.01
2023-03-17T15:57:54.967Z,14.97
2023-03-17T16:01:57.105Z,14.97
2023-03-17T16:06:00.134Z,14.94
2023-03-17T16:10:01.770Z,14.91
2023-03-17T16:14:03.463Z,14.86
2023-03-17T16:18:08.203Z,14.79
2023-03-17T16:22:43.344Z,14.69
2023-03-17T16:26:44.960Z,14.57
2023-03-17T16:30:47.619Z,14.52
2023-03-17T16:34:49.210Z,14.44
2023-03-17T16:38:51.110Z,14.39
2023-03-17T16:42:53.324Z,14.31
2023-03-17T16:46:54.906Z,14.23
2023-03-17T16:50:57.371Z,14.17
2023-03-17T16:54:58.943Z,14.12
2023-03-17T16:59:01.009Z,14.05
2023-03-17T17:03:02.851Z,13.96
2023-03-17T17:07:04.481Z,13.87
2023-03-17T17:11:06.509Z,13.83
2023-03-17T17:15:10.247Z,13.79
2023-03-17T17:19:17.130Z,13.72
2023-03-17T17:23:22.098Z,13.65
2023-03-17T17:27:23.751Z,13.61
2023-03-17T17:31:25.584Z,13.57
2023-03-17T17:35:32.505Z,13.53
2023-03-17T17:39:34.382Z,13.46
2023-03-17T17:43:36.132Z,13.43
2023-03-17T17:47:37.936Z,13.38
2023-03-17T17:51:39.473Z,13.35
2023-03-17T17:55:43.071Z,13.29
2023-03-17T17:59:44.886Z,13.21
2023-03-17T18:03:46.534Z,13.16
2023-03-17T18:07:48.159Z,13.12
2023-03-17T18:11:49.819Z,13.07
2023-03-17T18:15:51.821Z,13.01
2023-03-17T18:19:53.482Z,12.95
2023-03-17T18:23:55.771Z,12.94
2023-03-17T18:27:57.446Z,12.92
2023-03-17T18:31:59.307Z,12.94
2023-03-17T18:36:01.334Z,12.96
2023-03-17T18:40:18.007Z,12.92
2023-03-17T18:44:22.327Z,12.87
2023-03-17T18:48:23.919Z,12.85
2023-03-17T18:52:33.599Z,12.79
2023-03-17T18:56:35.142Z,12.73
2023-03-17T19:00:36.897Z,12.71
2023-03-17T19:04:45.835Z,12.70
2023-03-17T19:08:48.415Z,12.66
2023-03-17T19:12:50.598Z,12.63
2023-03-17T19:16:52.246Z,12.63
2023-03-17T19:20:55.961Z,12.61
2023-03-17T19:24:57.527Z,12.56
2023-03-17T19:28:59.100Z,12.56
2023-03-17T19:33:00.687Z,12.54
2023-03-17T19:37:03.552Z,12.51
2023-03-17T19:41:05.860Z,12.49
2023-03-17T19:45:08.073Z,12.48
2023-03-17T19:49:10.041Z,12.46
2023-03-17T19:53:12.070Z,12.43
2023-03-17T19:57:13.963Z,12.43
2023-03-17T20:01:16.472Z,12.38
2023-03-17T20:05:18.222Z,12.37
2023-03-17T20:09:19.896Z,12.36
2023-03-17T20:13:22.558Z,12.34
2023-03-17T20:17:24.141Z,12.29
2023-03-17T20:21:25.965Z,12.26
2023-03-17T20:25:27.538Z,12.25
2023-03-17T20:29:29.514Z,12.22
2023-03-17T20:33:33.311Z,12.15
2023-03-17T20:37:35.615Z,12.13
2023-03-17T20:41:37.270Z,12.12
2023-03-17T20:45:38.882Z,12.11
2023-03-17T20:49:40.476Z,12.11
2023-03-17T20:53:44.627Z,12.07
2023-03-17T20:57:47.443Z,12.03
2023-03-17T21:01:49.892Z,11.97
2023-03-17T21:05:51.576Z,11.94
2023-03-17T21:09:56.437Z,11.90
2023-03-17T21:13:58.054Z,11.85
2023-03-17T21:17:59.708Z,11.84
2023-03-17T21:22:01.610Z,11.81
2023-03-17T21:26:03.885Z,11.82
2023-03-17T21:30:11.997Z,11.84
2023-03-17T21:34:13.723Z,11.84
2023-03-17T21:38:16.041Z,11.85
2023-03-17T21:42:17.901Z,11.88
2023-03-17T21:46:19.441Z,11.88
2023-03-17T21:50:21.473Z,11.88
2023-03-17T21:54:24.337Z,11.88
2023-03-17T21:58:25.888Z,11.87
2023-03-17T22:02:28.089Z,11.84
2023-03-17T22:06:29.806Z,11.79
2023-03-17T22:10:31.858Z,11.82
2023-03-17T22:14:35.462Z,11.88
2023-03-17T22:18:37.546Z,11.93
2023-03-17T22:22:39.111Z,11.93
2023-03-17T22:26:40.926Z,11.90
2023-03-17T22:30:42.829Z,11.93
2023-03-17T22:34:45.190Z,11.93
2023-03-17T22:38:47.518Z,11.93
2023-03-17T22:42:49.091Z,11.93
2023-03-17T22:46:50.634Z,11.90
2023-03-17T22:50:52.380Z,11.88
2023-03-17T22:54:53.949Z,11.88
2023-03-17T22:58:56.341Z,11.84
2023-03-17T23:02:58.273Z,11.84
2023-03-17T23:06:59.867Z,11.78
2023-03-17T23:11:07.861Z,11.77
2023-03-17T23:15:11.457Z,11.75
2023-03-17T23:19:13.394Z,11.72
2023-03-17T23:23:15.311Z,11.77
2023-03-17T23:27:16.836Z,11.79
2023-03-17T23:31:19.482Z,11.81
2023-03-17T23:35:21.620Z,11.81
2023-03-17T23:39:23.448Z,11.84
2023-03-17T23:43:25.972Z,11.85
2023-03-17T23:47:28.164Z,11.85
2023-03-17T23:51:29.835Z,11.82
2023-03-17T23:55:31.476Z,11.82
2023-03-17T23:59:33.875Z,11.81
